ADDS TAF Data INFO
IDs: Format: Raw Decoded Include METARs

Data at: 2019 UTC 22 Apr 2018

KISO 221729Z 2218/2318 12006KT P6SM FEW050 BKN250
  FM231400 11015G23KT P6SM VCSH SCT030 OVC050 AMD LTD TO CLD VIS AND WIND